Westfield, Illinois
Current Conditions -  °F | °C
As of 4:19 AM on Friday 24 Oct 2014 (Local Time) from KMTO Reporting Station
Overcast Overcast  
Wind Chill: 52°   Ceiling: 3500
Heat Index: 52°   Visibility: 10mi
Dew Point: 44°   Wind: 6mph
Humidity: 74%   Direction: 170°S
Pressure: 30.07"   Gusts: NA
Location:  39.46°N, 88°W
Report Text: KMTO 240919Z AUTO 17005KT 10SM SCT027 OVC035 11/07 A3007 RMK AO2 T01110067
Loading
Personal Weather Stations






























Interactive Weather Map
Tropical Storm Tracking
New forecast layout! Learn more

10-Day Weather Forecast

Advertisements
Track Severe Weather on mobile